Terminal Aerodrome Forecast
Issued by NWS Billings, MT

Home | Current Version | Previous Version | Text Only | Print | Product List | Glossary On
Versions: 1 2 3 4 5 6 7 8 9 10 11 12 13 14 15 16 17 18 19 20 21 22 23 24 25 26
000
FTUS45 KBYZ 271120
TAFBIL
TAF
KBIL 271120Z 2712/2812 24018G24KT P6SM FEW100 SCT250
     FM280600 25015KT P6SM VCSH BKN080 OVC200=

USA.gov is the U.S. government's official web portal to all federal, state and local government web resources and services.